createdAt,value
2018-04-17T00:01:33.222Z,48.70
2018-04-17T00:04:00.900Z,51.17
2018-04-17T00:06:28.497Z,52.87
2018-04-17T00:08:56.085Z,49.97
2018-04-17T00:11:24.708Z,48.37
2018-04-17T00:13:52.297Z,51.20
2018-04-17T00:16:19.895Z,50.17
2018-04-17T00:18:47.519Z,46.70
2018-04-17T00:21:15.973Z,48.50
2018-04-17T00:23:43.596Z,52.60
2018-04-17T00:26:11.189Z,50.53
2018-04-17T00:28:39.187Z,49.33
2018-04-17T00:31:07.550Z,49.00
2018-04-17T00:33:35.936Z,48.90
2018-04-17T00:36:03.590Z,46.10
2018-04-17T00:38:31.179Z,46.80
2018-04-17T00:40:58.765Z,48.70
2018-04-17T00:43:26.345Z,44.17
2018-04-17T00:45:53.933Z,48.80
2018-04-17T00:48:21.554Z,47.03
2018-04-17T00:50:49.213Z,45.70
2018-04-17T00:53:28.845Z,43.93
2018-04-17T00:55:56.461Z,48.37
2018-04-17T00:58:24.134Z,45.10
2018-04-17T01:00:51.765Z,47.10
2018-04-17T01:03:20.237Z,46.57
2018-04-17T01:05:48.657Z,45.23
2018-04-17T01:08:17.152Z,45.60
2018-04-17T01:10:45.520Z,43.03
2018-04-17T01:13:13.105Z,46.33
2018-04-17T01:15:40.693Z,48.20
2018-04-17T01:18:09.179Z,46.70
2018-04-17T01:20:36.771Z,49.43
2018-04-17T01:23:04.393Z,52.57
2018-04-17T01:25:31.985Z,50.10
2018-04-17T01:27:59.711Z,48.03
2018-04-17T01:30:28.081Z,49.07
2018-04-17T01:32:55.714Z,45.73
2018-04-17T01:35:23.301Z,49.27
2018-04-17T01:37:50.887Z,45.60
2018-04-17T01:40:18.473Z,45.50
2018-04-17T01:42:46.062Z,48.10
2018-04-17T01:45:14.558Z,52.10
2018-04-17T01:47:42.141Z,45.67
2018-04-17T01:50:09.728Z,49.60
2018-04-17T01:52:37.315Z,46.63
2018-04-17T01:55:04.944Z,53.30
2018-04-17T01:57:32.525Z,50.37
2018-04-17T02:00:00.117Z,50.53
2018-04-17T02:02:27.736Z,49.53
2018-04-17T02:04:55.313Z,44.93
2018-04-17T02:07:22.936Z,48.70
2018-04-17T02:09:50.525Z,52.53
2018-04-17T02:12:18.118Z,52.83
2018-04-17T02:14:45.785Z,50.70
2018-04-17T02:17:13.370Z,49.03
2018-04-17T02:19:40.956Z,43.80
2018-04-17T02:22:08.543Z,41.70
2018-04-17T02:24:36.135Z,46.63
2018-04-17T02:27:03.826Z,44.97
2018-04-17T02:29:31.409Z,44.03
2018-04-17T02:31:58.998Z,49.13
2018-04-17T02:34:26.631Z,46.77
2018-04-17T02:36:54.218Z,45.30
2018-04-17T02:39:21.854Z,49.80
2018-04-17T02:41:49.478Z,45.77
2018-04-17T02:44:17.064Z,52.67
2018-04-17T02:46:44.740Z,47.17
2018-04-17T02:49:12.325Z,51.60
2018-04-17T02:51:39.905Z,47.40
2018-04-17T02:54:07.573Z,50.37
2018-04-17T02:56:35.160Z,47.80
2018-04-17T02:59:02.797Z,56.03
2018-04-17T03:01:31.187Z,50.80
2018-04-17T03:03:58.837Z,48.93
2018-04-17T03:06:26.426Z,52.87
2018-04-17T03:08:54.015Z,50.33
2018-04-17T03:11:21.602Z,50.23
2018-04-17T03:13:49.194Z,55.77
2018-04-17T03:16:16.782Z,48.47
2018-04-17T03:18:44.405Z,47.03
2018-04-17T03:21:12.073Z,52.00
2018-04-17T03:23:39.669Z,50.10
2018-04-17T03:26:07.253Z,47.10
2018-04-17T03:28:35.626Z,48.27
2018-04-17T03:31:03.246Z,48.47
2018-04-17T03:33:30.833Z,48.27
2018-04-17T03:35:58.454Z,48.53
2018-04-17T03:38:26.038Z,51.80
2018-04-17T03:40:53.617Z,48.37
2018-04-17T03:43:21.200Z,48.70
2018-04-17T03:45:48.784Z,50.73
2018-04-17T03:48:16.361Z,46.27
2018-04-17T03:50:43.952Z,42.87
2018-04-17T03:53:11.586Z,44.60
2018-04-17T03:55:39.166Z,48.67
2018-04-17T03:58:06.785Z,54.20
2018-04-17T04:00:34.369Z,57.20
2018-04-17T04:03:01.985Z,50.10
2018-04-17T04:05:29.570Z,51.47
2018-04-17T04:07:57.182Z,49.00
2018-04-17T04:10:24.769Z,58.80
2018-04-17T04:12:52.361Z,56.30
2018-04-17T04:15:19.954Z,60.37
2018-04-17T04:17:59.269Z,54.27
2018-04-17T04:20:38.584Z,59.77
2018-04-17T04:23:17.913Z,58.70
2018-04-17T04:25:50.953Z,50.97
2018-04-17T04:28:18.534Z,50.97
2018-04-17T04:30:46.120Z,62.57
2018-04-17T04:33:13.741Z,61.97
2018-04-17T04:35:41.370Z,57.67
2018-04-17T04:38:09.004Z,63.37
2018-04-17T04:40:36.586Z,60.50
2018-04-17T04:43:04.201Z,53.30
2018-04-17T04:45:31.790Z,52.07
2018-04-17T04:48:00.164Z,56.73
2018-04-17T04:50:27.878Z,52.33
2018-04-17T04:52:55.465Z,61.60
2018-04-17T04:55:23.082Z,54.30
2018-04-17T04:57:50.668Z,53.77
2018-04-17T05:00:18.493Z,57.83
2018-04-17T05:02:46.252Z,66.10
2018-04-17T05:05:13.924Z,59.27
2018-04-17T05:07:41.568Z,62.53
2018-04-17T05:10:09.175Z,62.73
2018-04-17T05:12:36.834Z,62.90
2018-04-17T05:15:04.421Z,64.77
2018-04-17T05:17:32.069Z,54.57
2018-04-17T05:19:59.654Z,58.47
2018-04-17T05:22:27.476Z,55.80
2018-04-17T05:24:55.092Z,57.60
2018-04-17T05:27:22.711Z,54.47
2018-04-17T05:29:50.297Z,60.90
2018-04-17T05:32:17.911Z,62.90
2018-04-17T05:34:45.548Z,62.87
2018-04-17T05:37:13.158Z,62.77
2018-04-17T05:39:40.815Z,62.37
2018-04-17T05:42:08.397Z,61.27
2018-04-17T05:44:35.992Z,61.57
2018-04-17T05:47:03.619Z,64.87
2018-04-17T05:49:31.222Z,59.47
2018-04-17T05:51:58.806Z,57.97
2018-04-17T05:54:26.405Z,59.10
2018-04-17T05:56:54.001Z,58.20
2018-04-17T05:59:21.594Z,54.70
2018-04-17T06:01:49.233Z,56.50
2018-04-17T06:04:16.851Z,55.50
2018-04-17T06:06:44.447Z,56.20
2018-04-17T06:09:12.067Z,51.67
2018-04-17T06:11:39.698Z,51.37
2018-04-17T06:14:07.288Z,52.53
2018-04-17T06:16:34.874Z,48.90
2018-04-17T06:19:02.458Z,46.90
2018-04-17T06:21:30.043Z,45.80
2018-04-17T06:23:57.690Z,46.00
2018-04-17T06:26:25.281Z,46.03
2018-04-17T06:28:52.880Z,45.27
2018-04-17T06:31:20.465Z,44.03
2018-04-17T06:33:48.057Z,43.60
2018-04-17T06:36:15.644Z,41.13
2018-04-17T06:38:43.230Z,40.07
2018-04-17T06:41:10.825Z,41.83
2018-04-17T06:43:38.415Z,41.97
2018-04-17T06:46:06.002Z,39.50
2018-04-17T06:48:33.626Z,40.93
2018-04-17T06:51:01.212Z,40.30
2018-04-17T06:53:28.798Z,44.23
2018-04-17T06:55:56.383Z,42.33
2018-04-17T06:58:23.976Z,42.63
2018-04-17T07:00:51.563Z,39.90
2018-04-17T07:03:19.218Z,39.53
2018-04-17T07:05:46.790Z,43.50
2018-04-17T07:08:14.381Z,43.80
2018-04-17T07:10:41.989Z,42.07
2018-04-17T07:13:09.579Z,40.83
2018-04-17T07:15:37.190Z,40.90
2018-04-17T07:18:04.773Z,38.13
2018-04-17T07:20:32.363Z,38.97
2018-04-17T07:22:59.984Z,38.33
2018-04-17T07:25:27.570Z,41.10
2018-04-17T07:27:55.152Z,38.73
2018-04-17T07:30:22.738Z,39.33
2018-04-17T07:33:02.903Z,37.77
2018-04-17T07:35:30.553Z,41.77
2018-04-17T07:37:58.181Z,40.33
2018-04-17T07:40:25.945Z,41.70
2018-04-17T07:42:53.507Z,36.77
2018-04-17T07:45:21.095Z,34.40
2018-04-17T07:50:47.434Z,38.40
2018-04-17T07:53:15.737Z,41.20
2018-04-17T07:55:43.352Z,37.63
2018-04-17T07:58:10.995Z,39.47
2018-04-17T08:00:38.606Z,39.20
2018-04-17T08:03:06.196Z,39.70
2018-04-17T08:05:33.819Z,39.43
2018-04-17T08:08:01.407Z,39.43
2018-04-17T08:10:29.019Z,38.77
2018-04-17T08:12:56.630Z,40.30
2018-04-17T08:15:24.229Z,38.23
2018-04-17T08:17:51.813Z,35.77
2018-04-17T08:20:19.397Z,39.00
2018-04-17T08:22:46.987Z,38.07
2018-04-17T08:25:14.582Z,37.97
2018-04-17T08:27:42.210Z,38.17
2018-04-17T08:30:09.801Z,36.20
2018-04-17T08:32:37.423Z,36.67
2018-04-17T08:35:05.090Z,34.40
2018-04-17T08:37:32.675Z,32.43
2018-04-17T08:40:00.266Z,38.20
2018-04-17T08:42:27.846Z,36.67
2018-04-17T08:44:55.530Z,34.80
2018-04-17T08:47:23.119Z,32.40
2018-04-17T08:49:50.760Z,32.13
2018-04-17T08:52:18.342Z,31.27
2018-04-17T08:54:45.927Z,26.60
2018-04-17T08:57:13.512Z,30.67
2018-04-17T08:59:41.095Z,33.07
2018-04-17T09:02:08.681Z,30.70
2018-04-17T09:04:36.269Z,25.20
2018-04-17T09:07:03.852Z,29.93
2018-04-17T09:09:31.442Z,22.43
2018-04-17T09:11:59.069Z,26.80
2018-04-17T09:14:26.658Z,29.37
2018-04-17T09:16:54.330Z,25.30
2018-04-17T09:19:21.921Z,22.47
2018-04-17T09:21:49.554Z,15.30
2018-04-17T09:24:17.132Z,15.00
2018-04-17T09:26:44.778Z,11.03
2018-04-17T09:29:12.523Z,10.70
2018-04-17T09:31:40.057Z,9.03
2018-04-17T09:34:07.671Z,9.67
2018-04-17T09:36:35.258Z,11.60
2018-04-17T09:39:02.841Z,12.63
2018-04-17T09:41:30.430Z,10.47
2018-04-17T09:43:58.014Z,10.20
2018-04-17T09:46:25.593Z,10.30
2018-04-17T09:48:53.175Z,9.87
2018-04-17T09:51:20.757Z,10.73
2018-04-17T09:53:48.344Z,8.97
2018-04-17T09:56:15.925Z,8.60
2018-04-17T09:58:43.512Z,10.03
2018-04-17T10:01:16.558Z,7.63
2018-04-17T10:03:44.139Z,7.50
2018-04-17T10:06:12.779Z,7.20
2018-04-17T10:08:40.397Z,8.10
2018-04-17T10:11:07.973Z,7.30
2018-04-17T10:13:35.550Z,7.07
2018-04-17T10:16:03.135Z,5.90
2018-04-17T10:18:30.718Z,6.37
2018-04-17T10:20:58.305Z,7.93
2018-04-17T10:23:25.942Z,6.80
2018-04-17T10:25:53.772Z,5.20
2018-04-17T10:28:21.385Z,6.77
2018-04-17T10:30:48.965Z,5.30
2018-04-17T10:33:16.648Z,4.87
2018-04-17T10:35:44.228Z,5.80
2018-04-17T10:38:11.814Z,4.93
2018-04-17T10:40:39.405Z,4.90
2018-04-17T10:43:06.983Z,4.60
2018-04-17T10:45:34.558Z,5.10
2018-04-17T10:48:02.133Z,6.23
2018-04-17T10:50:29.714Z,4.50
2018-04-17T10:52:57.286Z,5.30
2018-04-17T10:55:24.930Z,5.43
2018-04-17T10:57:52.521Z,5.87
2018-04-17T11:00:20.210Z,5.60
2018-04-17T11:02:47.786Z,5.13
2018-04-17T11:05:15.361Z,4.80
2018-04-17T11:07:42.938Z,5.20
2018-04-17T11:10:10.522Z,5.57
2018-04-17T11:12:38.106Z,5.23
2018-04-17T11:15:05.740Z,5.77
2018-04-17T11:17:33.334Z,5.10
2018-04-17T11:20:00.912Z,5.43
2018-04-17T11:22:28.491Z,5.00
2018-04-17T11:24:56.074Z,4.77
2018-04-17T11:27:23.685Z,5.47
2018-04-17T11:29:51.269Z,5.67
2018-04-17T11:32:18.874Z,6.07
2018-04-17T11:34:46.471Z,5.47
2018-04-17T11:37:14.094Z,6.20
2018-04-17T11:39:41.671Z,5.90
2018-04-17T11:42:09.251Z,4.37
2018-04-17T11:44:36.835Z,5.17
2018-04-17T11:47:04.441Z,4.87
2018-04-17T11:49:32.013Z,4.90
2018-04-17T11:51:59.596Z,4.60
2018-04-17T11:54:27.173Z,4.50
2018-04-17T11:56:54.750Z,4.97
2018-04-17T11:59:22.341Z,5.37
2018-04-17T12:01:49.974Z,4.67
2018-04-17T12:04:17.553Z,4.77
2018-04-17T12:06:45.130Z,4.50
2018-04-17T12:09:12.711Z,4.90
2018-04-17T12:11:40.354Z,4.70
2018-04-17T12:14:07.942Z,5.27
2018-04-17T12:16:35.578Z,4.13
2018-04-17T12:19:03.273Z,4.43
2018-04-17T12:21:30.852Z,5.37
2018-04-17T12:23:58.463Z,4.50
2018-04-17T12:26:26.037Z,4.00
2018-04-17T12:28:53.617Z,4.00
2018-04-17T12:31:21.198Z,4.70
2018-04-17T12:33:48.778Z,3.80
2018-04-17T12:36:16.350Z,3.90
2018-04-17T12:38:43.921Z,4.17
2018-04-17T12:41:11.505Z,5.10
2018-04-17T12:43:39.082Z,4.30
2018-04-17T12:46:06.699Z,4.10
2018-04-17T12:48:34.326Z,3.70
2018-04-17T12:51:01.907Z,3.17
2018-04-17T12:53:30.105Z,4.60
2018-04-17T12:55:57.719Z,3.20
2018-04-17T12:58:25.334Z,4.10
2018-04-17T13:00:52.946Z,3.93
2018-04-17T13:03:20.610Z,4.10
2018-04-17T13:05:48.223Z,4.63
2018-04-17T13:08:15.845Z,4.57
2018-04-17T13:10:43.413Z,5.13
2018-04-17T13:13:10.996Z,3.87
2018-04-17T13:15:38.601Z,3.80
2018-04-17T13:18:06.186Z,4.20
2018-04-17T13:20:33.793Z,4.50
2018-04-17T13:23:01.365Z,4.60
2018-04-17T13:25:28.947Z,4.00
2018-04-17T13:27:56.529Z,4.97
2018-04-17T13:30:24.107Z,3.47
2018-04-17T13:32:51.685Z,4.10
2018-04-17T13:35:19.258Z,3.60
2018-04-17T13:37:46.839Z,4.97
2018-04-17T13:40:14.412Z,3.80
2018-04-17T13:42:41.993Z,3.83
2018-04-17T13:45:09.570Z,4.00
2018-04-17T13:47:37.152Z,4.00
2018-04-17T13:50:04.735Z,4.07
2018-04-17T13:52:32.386Z,3.77
2018-04-17T13:54:59.965Z,3.60
2018-04-17T13:57:27.547Z,4.30
2018-04-17T13:59:55.127Z,4.37
2018-04-17T14:02:22.702Z,3.90
2018-04-17T14:04:50.293Z,2.80
2018-04-17T14:07:17.914Z,3.07
2018-04-17T14:09:45.590Z,5.33
2018-04-17T14:12:13.171Z,3.57
2018-04-17T14:14:40.834Z,3.70
2018-04-17T14:17:08.423Z,3.47
2018-04-17T14:19:35.994Z,4.17
2018-04-17T14:22:03.574Z,3.33
2018-04-17T14:24:31.185Z,3.40
2018-04-17T14:26:58.773Z,4.00
2018-04-17T14:29:26.347Z,3.60
2018-04-17T14:31:53.975Z,3.30
2018-04-17T14:34:21.554Z,4.13
2018-04-17T14:36:49.200Z,4.23
2018-04-17T14:39:16.783Z,3.97
2018-04-17T14:41:44.373Z,3.90
2018-04-17T14:44:11.954Z,3.30
2018-04-17T14:46:39.533Z,4.00
2018-04-17T14:49:07.118Z,4.70
2018-04-17T14:51:34.709Z,3.77
2018-04-17T14:54:02.320Z,3.37
2018-04-17T14:56:29.902Z,3.67
2018-04-17T14:58:57.481Z,3.70
2018-04-17T15:01:25.093Z,3.40
2018-04-17T15:03:52.674Z,3.23
2018-04-17T15:06:20.250Z,4.20
2018-04-17T15:08:47.840Z,4.60
2018-04-17T15:11:15.427Z,4.13
2018-04-17T15:13:43.000Z,4.20
2018-04-17T15:16:10.581Z,3.40
2018-04-17T15:18:38.153Z,3.70
2018-04-17T15:21:05.850Z,3.23
2018-04-17T15:23:33.432Z,3.37
2018-04-17T15:26:01.004Z,4.10
2018-04-17T15:28:28.586Z,3.03
2018-04-17T15:30:56.165Z,3.63
2018-04-17T15:33:23.739Z,3.70
2018-04-17T15:35:51.318Z,4.13
2018-04-17T15:38:18.945Z,3.00
2018-04-17T15:40:46.503Z,3.10
2018-04-17T15:43:14.090Z,3.00
2018-04-17T15:45:41.667Z,3.20
2018-04-17T15:48:09.237Z,2.60
2018-04-17T15:50:36.813Z,3.30
2018-04-17T15:53:05.488Z,3.80
2018-04-17T15:55:33.064Z,4.87
2018-04-17T15:58:00.641Z,3.20
2018-04-17T16:00:28.221Z,3.57
2018-04-17T16:02:55.798Z,3.30
2018-04-17T16:05:23.381Z,2.67
2018-04-17T16:07:50.997Z,2.87
2018-04-17T16:10:18.579Z,3.30
2018-04-17T16:12:46.160Z,2.90
2018-04-17T16:15:13.733Z,2.73
2018-04-17T16:17:41.310Z,3.07
2018-04-17T16:20:08.885Z,2.70
2018-04-17T16:22:37.181Z,3.37
2018-04-17T16:25:04.770Z,4.13
2018-04-17T16:27:32.351Z,3.40
2018-04-17T16:29:59.958Z,3.23
2018-04-17T16:32:27.550Z,2.73
2018-04-17T16:34:55.127Z,3.37
2018-04-17T16:37:22.694Z,3.20
2018-04-17T16:39:50.265Z,3.07
2018-04-17T16:42:17.844Z,2.60
2018-04-17T16:44:45.425Z,3.03
2018-04-17T16:47:13.005Z,3.03
2018-04-17T16:49:40.646Z,3.23
2018-04-17T16:52:08.235Z,37.53
2018-04-17T16:54:35.858Z,4.07
2018-04-17T16:57:03.438Z,4.43
2018-04-17T16:59:31.051Z,3.27
2018-04-17T17:01:59.631Z,2.70
2018-04-17T17:04:27.269Z,2.97
2018-04-17T17:06:54.867Z,3.27
2018-04-17T17:09:22.443Z,3.60
2018-04-17T17:11:50.058Z,3.03
2018-04-17T17:14:17.634Z,2.77
2018-04-17T17:16:45.237Z,2.60
2018-04-17T17:19:12.818Z,2.83
2018-04-17T17:21:40.405Z,3.17
2018-04-17T17:24:08.098Z,4.23
2018-04-17T17:26:35.729Z,2.77
2018-04-17T17:29:03.390Z,2.90
2018-04-17T17:31:30.978Z,2.47
2018-04-17T17:33:58.565Z,3.13
2018-04-17T17:36:26.139Z,2.70
2018-04-17T17:38:53.759Z,2.33
2018-04-17T17:41:21.622Z,2.87
2018-04-17T17:43:49.246Z,2.93
2018-04-17T17:46:16.862Z,4.03
2018-04-17T17:48:44.441Z,2.50
2018-04-17T17:51:12.106Z,3.10
2018-04-17T17:53:39.790Z,2.70
2018-04-17T17:56:07.491Z,2.70
2018-04-17T17:58:35.075Z,3.27
2018-04-17T18:01:02.654Z,2.40
2018-04-17T18:03:30.234Z,2.70
2018-04-17T18:05:57.830Z,2.83
2018-04-17T18:08:25.424Z,2.90
2018-04-17T18:10:53.000Z,2.90
2018-04-17T18:13:20.589Z,3.63
2018-04-17T18:15:48.183Z,3.20
2018-04-17T18:18:15.801Z,3.67
2018-04-17T18:20:43.379Z,3.23
2018-04-17T18:23:11.053Z,3.60
2018-04-17T18:25:38.691Z,3.90
2018-04-17T18:28:06.309Z,3.17
2018-04-17T18:30:33.898Z,3.20
2018-04-17T18:33:01.482Z,3.60
2018-04-17T18:35:29.078Z,3.43
2018-04-17T18:37:56.761Z,3.97
2018-04-17T18:40:24.435Z,3.47
2018-04-17T18:42:52.019Z,3.47
2018-04-17T18:45:19.599Z,3.23
2018-04-17T18:47:47.230Z,3.60
2018-04-17T18:50:14.836Z,4.37
2018-04-17T18:52:42.465Z,3.53
2018-04-17T18:55:10.068Z,3.80
2018-04-17T18:57:37.739Z,3.70
2018-04-17T19:00:05.339Z,3.30
2018-04-17T19:02:33.776Z,3.90
2018-04-17T19:05:01.372Z,3.63
2018-04-17T19:07:28.954Z,3.73
2018-04-17T19:09:56.536Z,3.90
2018-04-17T19:12:24.118Z,4.10
2018-04-17T19:14:51.697Z,4.20
2018-04-17T19:17:19.298Z,4.20
2018-04-17T19:19:46.879Z,3.80
2018-04-17T19:22:14.502Z,4.20
2018-04-17T19:24:42.086Z,6.43
2018-04-17T19:27:09.675Z,6.20
2018-04-17T19:29:37.343Z,8.13
2018-04-17T19:32:05.006Z,7.70
2018-04-17T19:34:32.621Z,7.73
2018-04-17T19:37:00.206Z,6.97
2018-04-17T19:39:27.868Z,6.70
2018-04-17T19:41:55.455Z,8.97
2018-04-17T19:44:23.269Z,7.70
2018-04-17T19:46:50.879Z,7.63
2018-04-17T19:49:18.493Z,7.10
2018-04-17T19:51:46.259Z,8.60
2018-04-17T19:54:13.955Z,10.57
2018-04-17T19:56:41.607Z,11.40
2018-04-17T19:59:09.193Z,10.83
2018-04-17T20:01:38.042Z,9.47
2018-04-17T20:04:05.751Z,9.17
2018-04-17T20:06:33.342Z,10.47
2018-04-17T20:09:01.014Z,8.70
2018-04-17T20:11:28.611Z,10.10
2018-04-17T20:13:56.306Z,10.63
2018-04-17T20:16:24.022Z,11.27
2018-04-17T20:18:51.610Z,10.93
2018-04-17T20:21:19.198Z,10.50
2018-04-17T20:23:46.791Z,10.13
2018-04-17T20:26:14.907Z,11.60
2018-04-17T20:28:42.523Z,12.67
2018-04-17T20:31:10.108Z,11.73
2018-04-17T20:33:37.730Z,12.67
2018-04-17T20:36:05.353Z,10.93
2018-04-17T20:38:33.046Z,11.93
2018-04-17T20:41:00.636Z,9.77
2018-04-17T20:43:29.341Z,10.70
2018-04-17T20:45:56.958Z,10.87
2018-04-17T20:48:24.586Z,12.17
2018-04-17T20:50:52.201Z,12.57
2018-04-17T20:53:19.789Z,12.77
2018-04-17T20:55:47.479Z,11.53
2018-04-17T20:58:18.830Z,11.17
2018-04-17T21:00:46.488Z,11.23
2018-04-17T21:03:14.114Z,10.67
2018-04-17T21:05:41.715Z,10.63
2018-04-17T21:08:09.579Z,11.47
2018-04-17T21:10:38.261Z,13.23
2018-04-17T21:13:05.854Z,11.70
2018-04-17T21:15:33.439Z,11.97
2018-04-17T21:18:01.045Z,12.43
2018-04-17T21:20:28.625Z,13.77
2018-04-17T21:22:56.251Z,11.83
2018-04-17T21:25:23.840Z,11.50
2018-04-17T21:27:51.427Z,12.77
2018-04-17T21:30:19.089Z,14.23
2018-04-17T21:32:46.730Z,14.73
2018-04-17T21:35:14.321Z,11.97
2018-04-17T21:37:41.911Z,11.60
2018-04-17T21:40:09.605Z,11.90
2018-04-17T21:42:37.335Z,12.00
2018-04-17T21:45:04.933Z,10.87
2018-04-17T21:47:32.562Z,10.73
2018-04-17T21:50:00.146Z,8.50
2018-04-17T21:52:27.784Z,9.07
2018-04-17T21:54:55.368Z,9.67
2018-04-17T21:57:22.966Z,9.30
2018-04-17T21:59:50.563Z,9.27
2018-04-17T22:02:18.147Z,9.30
2018-04-17T22:04:45.758Z,9.27
2018-04-17T22:07:13.374Z,8.30
2018-04-17T22:09:40.960Z,8.20
2018-04-17T22:12:09.513Z,9.77
2018-04-17T22:14:37.099Z,9.50
2018-04-17T22:17:04.688Z,8.40
2018-04-17T22:19:32.318Z,8.67
2018-04-17T22:21:59.914Z,10.50
2018-04-17T22:24:27.502Z,9.50
2018-04-17T22:26:55.139Z,10.80
2018-04-17T22:29:22.848Z,9.83
2018-04-17T22:31:50.426Z,9.70
2018-04-17T22:34:18.011Z,10.73
2018-04-17T22:36:45.646Z,10.30
2018-04-17T22:39:13.380Z,10.10
2018-04-17T22:41:40.966Z,10.53
2018-04-17T22:44:08.551Z,10.27
2018-04-17T22:46:36.134Z,11.37
2018-04-17T22:49:03.714Z,10.50
2018-04-17T22:51:31.300Z,10.93
2018-04-17T22:53:58.891Z,11.00
2018-04-17T22:56:26.469Z,10.50
2018-04-17T22:58:54.941Z,10.60
2018-04-17T23:01:22.549Z,10.60
2018-04-17T23:03:50.134Z,10.47
2018-04-17T23:06:17.758Z,11.40
2018-04-17T23:08:45.334Z,10.70
2018-04-17T23:11:12.922Z,11.00
2018-04-17T23:13:40.511Z,10.60
2018-04-17T23:16:08.093Z,10.33
2018-04-17T23:18:35.674Z,9.57
2018-04-17T23:21:03.261Z,10.90
2018-04-17T23:23:30.843Z,9.90
2018-04-17T23:25:58.434Z,10.60
2018-04-17T23:28:26.026Z,10.10
2018-04-17T23:30:53.608Z,9.33
2018-04-17T23:33:21.189Z,10.43
2018-04-17T23:35:48.767Z,9.57
2018-04-17T23:38:16.350Z,9.83
2018-04-17T23:40:43.930Z,9.13
2018-04-17T23:43:11.510Z,9.70
2018-04-17T23:45:39.095Z,9.90
2018-04-17T23:48:07.062Z,9.87
2018-04-17T23:50:34.681Z,9.60
2018-04-17T23:53:02.309Z,11.13
2018-04-17T23:55:29.895Z,10.57
2018-04-17T23:57:57.474Z,10.90
